createdAt,value
2017-11-22T00:01:58.708Z,31.33
2017-11-22T00:04:25.734Z,30.33
2017-11-22T00:06:52.972Z,31.27
2017-11-22T00:09:19.537Z,29.60
2017-11-22T00:11:47.443Z,25.10
2017-11-22T00:14:14.493Z,29.67
2017-11-22T00:16:41.505Z,24.52
2017-11-22T00:19:07.699Z,21.98
2017-11-22T00:21:34.667Z,21.37
2017-11-22T00:24:01.426Z,21.60
2017-11-22T00:26:27.648Z,24.73
2017-11-22T00:28:53.871Z,35.83
2017-11-22T00:31:20.604Z,33.03
2017-11-22T00:33:47.320Z,22.15
2017-11-22T00:36:13.520Z,43.83
2017-11-22T00:38:39.711Z,22.48
2017-11-22T00:41:05.939Z,20.80
2017-11-22T00:43:32.809Z,17.90
2017-11-22T00:46:00.860Z,21.60
2017-11-22T00:48:28.097Z,18.10
2017-11-22T00:50:55.311Z,17.20
2017-11-22T00:53:22.458Z,17.42
2017-11-22T00:55:49.199Z,19.98
2017-11-22T00:58:15.851Z,14.20
2017-11-22T01:00:43.855Z,22.45
2017-11-22T01:03:10.942Z,20.98
2017-11-22T01:05:37.906Z,18.65
2017-11-22T01:08:05.053Z,14.00
2017-11-22T01:10:31.289Z,30.55
2017-11-22T01:12:57.966Z,15.73
2017-11-22T01:15:25.635Z,18.65
2017-11-22T01:17:51.823Z,16.08
2017-11-22T01:20:18.927Z,18.75
2017-11-22T01:22:45.839Z,15.05
2017-11-22T01:25:13.603Z,15.43
2017-11-22T01:27:41.009Z,20.90
2017-11-22T01:30:08.364Z,20.50
2017-11-22T01:32:34.607Z,13.00
2017-11-22T01:35:01.283Z,18.45
2017-11-22T01:37:28.262Z,20.15
2017-11-22T01:39:54.506Z,16.15
2017-11-22T01:42:21.372Z,16.85
2017-11-22T01:44:47.681Z,14.50
2017-11-22T01:47:14.505Z,19.67
2017-11-22T01:49:41.020Z,15.43
2017-11-22T01:52:07.959Z,19.05
2017-11-22T01:54:34.368Z,20.15
2017-11-22T01:57:01.675Z,16.52
2017-11-22T01:59:28.744Z,23.87
2017-11-22T02:01:54.959Z,14.55
2017-11-22T02:04:21.797Z,24.37
2017-11-22T02:06:48.025Z,19.12
2017-11-22T02:09:14.858Z,21.20
2017-11-22T02:11:41.650Z,28.30
2017-11-22T02:14:08.394Z,23.50
2017-11-22T02:16:35.132Z,17.80
2017-11-22T02:19:02.025Z,24.42
2017-11-22T02:21:29.647Z,19.58
2017-11-22T02:23:56.234Z,19.55
2017-11-22T02:26:22.442Z,20.50
2017-11-22T02:28:49.975Z,14.05
2017-11-22T02:31:17.286Z,20.75
2017-11-22T02:33:44.316Z,22.65
2017-11-22T02:36:10.921Z,18.85
2017-11-22T02:38:39.287Z,21.23
2017-11-22T02:41:05.551Z,21.60
2017-11-22T02:43:32.507Z,24.83
2017-11-22T02:45:59.126Z,12.63
2017-11-22T02:48:26.205Z,23.67
2017-11-22T02:50:53.277Z,20.45
2017-11-22T02:53:19.545Z,24.92
2017-11-22T02:55:46.914Z,18.95
2017-11-22T02:58:13.168Z,20.52
2017-11-22T03:00:39.457Z,21.17
2017-11-22T03:03:07.006Z,24.17
2017-11-22T03:05:34.484Z,20.95
2017-11-22T03:08:01.320Z,17.65
2017-11-22T03:10:27.754Z,20.95
2017-11-22T03:12:55.519Z,17.75
2017-11-22T03:15:21.725Z,16.73
2017-11-22T03:17:49.322Z,35.88
2017-11-22T03:20:16.225Z,30.60
2017-11-22T03:22:43.748Z,22.92
2017-11-22T03:25:10.269Z,14.90
2017-11-22T03:27:37.276Z,18.92
2017-11-22T03:30:05.219Z,19.17
2017-11-22T03:32:31.952Z,17.48
2017-11-22T03:34:58.256Z,19.52
2017-11-22T03:37:24.524Z,19.08
2017-11-22T03:39:50.837Z,14.70
2017-11-22T03:42:17.387Z,18.05
2017-11-22T03:44:44.944Z,18.90
2017-11-22T03:47:11.576Z,28.08
2017-11-22T03:49:45.653Z,34.08
2017-11-22T03:52:18.593Z,15.98
2017-11-22T03:54:45.554Z,20.30
2017-11-22T03:57:12.035Z,15.10
2017-11-22T03:59:39.256Z,27.87
2017-11-22T04:02:06.926Z,24.08
2017-11-22T04:04:33.697Z,25.83
2017-11-22T04:07:00.089Z,27.27
2017-11-22T04:09:26.719Z,24.23
2017-11-22T04:11:53.160Z,18.98
2017-11-22T04:14:19.371Z,16.62
2017-11-22T04:16:45.862Z,15.90
2017-11-22T04:19:19.527Z,19.85
2017-11-22T04:21:45.914Z,14.93
2017-11-22T04:24:13.858Z,15.30
2017-11-22T04:26:41.881Z,19.42
2017-11-22T04:29:08.092Z,18.95
2017-11-22T04:31:35.568Z,24.50
2017-11-22T04:34:02.104Z,18.23
2017-11-22T04:36:29.807Z,22.45
2017-11-22T04:38:57.316Z,26.67
2017-11-22T04:41:23.593Z,21.17
2017-11-22T04:43:50.827Z,23.42
2017-11-22T04:46:17.507Z,17.60
2017-11-22T04:48:44.526Z,12.35
2017-11-22T04:51:12.252Z,21.48
2017-11-22T04:53:39.045Z,24.58
2017-11-22T04:56:06.147Z,20.95
2017-11-22T04:58:33.197Z,23.00
2017-11-22T05:01:00.919Z,29.58
2017-11-22T05:03:28.512Z,23.73
2017-11-22T05:05:55.568Z,23.52
2017-11-22T05:08:23.533Z,23.83
2017-11-22T05:10:50.629Z,18.40
2017-11-22T05:13:16.864Z,27.00
2017-11-22T05:15:43.684Z,21.87
2017-11-22T05:18:10.438Z,23.27
2017-11-22T05:20:36.644Z,17.23
2017-11-22T05:23:03.376Z,19.05
2017-11-22T05:25:30.137Z,21.20
2017-11-22T05:27:57.851Z,21.08
2017-11-22T05:30:25.348Z,20.88
2017-11-22T05:32:52.867Z,17.12
2017-11-22T05:35:20.030Z,25.65
2017-11-22T05:37:47.010Z,23.55
2017-11-22T05:40:14.866Z,22.17
2017-11-22T05:42:41.856Z,21.08
2017-11-22T05:45:09.089Z,16.98
2017-11-22T05:47:36.449Z,25.05
2017-11-22T05:50:03.756Z,25.77
2017-11-22T05:52:29.973Z,22.48
2017-11-22T05:54:56.535Z,27.17
2017-11-22T05:57:22.809Z,22.50
2017-11-22T05:59:49.755Z,25.70
2017-11-22T06:02:17.049Z,27.70
2017-11-22T06:04:44.164Z,26.45
2017-11-22T06:07:10.816Z,25.85
2017-11-22T06:09:37.618Z,33.10
2017-11-22T06:12:05.417Z,18.98
2017-11-22T06:14:32.910Z,35.17
2017-11-22T06:17:00.562Z,32.33
2017-11-22T06:19:27.869Z,28.52
2017-11-22T06:21:55.403Z,29.30
2017-11-22T06:24:21.619Z,29.25
2017-11-22T06:26:48.810Z,29.37
2017-11-22T06:29:16.028Z,27.42
2017-11-22T06:31:42.705Z,32.00
2017-11-22T06:34:09.986Z,26.60
2017-11-22T06:36:37.059Z,58.30
2017-11-22T06:39:05.571Z,33.65
2017-11-22T06:41:32.538Z,29.92
2017-11-22T06:43:58.751Z,37.75
2017-11-22T06:46:26.096Z,29.15
2017-11-22T06:48:53.988Z,22.45
2017-11-22T06:51:20.730Z,32.08
2017-11-22T06:53:47.050Z,36.58
2017-11-22T06:56:13.835Z,26.58
2017-11-22T06:58:40.448Z,41.30
2017-11-22T07:01:08.148Z,37.63
2017-11-22T07:03:41.347Z,30.15
2017-11-22T07:06:08.139Z,26.85
2017-11-22T07:08:35.004Z,24.90
2017-11-22T07:11:01.631Z,22.33
2017-11-22T07:13:29.557Z,31.92
2017-11-22T07:15:56.554Z,34.58
2017-11-22T07:18:22.761Z,35.03
2017-11-22T07:20:49.609Z,30.25
2017-11-22T07:23:15.851Z,40.70
2017-11-22T07:25:42.834Z,30.40
2017-11-22T07:28:09.981Z,41.45
2017-11-22T07:30:37.073Z,33.10
2017-11-22T07:33:03.310Z,46.28
2017-11-22T07:35:36.619Z,39.97
2017-11-22T07:38:02.851Z,34.05
2017-11-22T07:40:29.700Z,39.88
2017-11-22T07:42:55.926Z,32.53
2017-11-22T07:45:22.753Z,41.72
2017-11-22T07:47:55.395Z,30.00
2017-11-22T07:50:21.939Z,45.28
2017-11-22T07:52:48.995Z,47.05
2017-11-22T07:55:16.192Z,49.35
2017-11-22T07:57:42.938Z,47.45
2017-11-22T08:00:09.923Z,35.90
2017-11-22T08:02:42.022Z,35.47
2017-11-22T08:05:08.386Z,28.00
2017-11-22T08:07:35.384Z,40.72
2017-11-22T08:10:02.320Z,36.22
2017-11-22T08:12:29.062Z,34.00
2017-11-22T08:14:55.273Z,30.42
2017-11-22T08:17:21.486Z,33.22
2017-11-22T08:19:49.052Z,29.27
2017-11-22T08:22:15.259Z,31.25
2017-11-22T08:24:42.608Z,29.80
2017-11-22T08:27:10.268Z,45.65
2017-11-22T08:29:37.342Z,48.47
2017-11-22T08:32:05.178Z,32.75
2017-11-22T08:34:31.433Z,32.13
2017-11-22T08:36:57.761Z,32.55
2017-11-22T08:39:25.351Z,32.97
2017-11-22T08:41:52.149Z,35.72
2017-11-22T08:44:19.266Z,44.58
2017-11-22T08:46:46.876Z,40.47
2017-11-22T08:49:13.107Z,39.33
2017-11-22T08:51:39.348Z,29.20
2017-11-22T08:54:11.854Z,40.65
2017-11-22T08:56:44.148Z,40.88
2017-11-22T08:59:11.083Z,37.25
2017-11-22T09:01:37.973Z,31.45
2017-11-22T09:04:09.618Z,30.15
2017-11-22T09:06:38.909Z,25.23
2017-11-22T09:09:05.109Z,25.70
2017-11-22T09:11:32.070Z,31.65
2017-11-22T09:13:58.391Z,28.25
2017-11-22T09:16:25.155Z,27.83
2017-11-22T09:18:54.161Z,24.80
2017-11-22T09:21:20.977Z,20.67
2017-11-22T09:23:48.457Z,25.77
2017-11-22T09:26:15.067Z,20.05
2017-11-22T09:28:42.690Z,24.23
2017-11-22T09:31:15.424Z,24.00
2017-11-22T09:33:45.292Z,24.35
2017-11-22T09:36:15.788Z,25.00
2017-11-22T09:38:43.083Z,27.48
2017-11-22T09:41:09.576Z,24.23
2017-11-22T09:43:36.441Z,27.58
2017-11-22T09:46:03.159Z,24.70
2017-11-22T09:48:29.407Z,22.02
2017-11-22T09:50:56.570Z,29.40
2017-11-22T09:53:23.327Z,27.55
2017-11-22T09:55:49.648Z,25.65
2017-11-22T09:58:16.420Z,30.85
2017-11-22T10:00:43.678Z,32.38
2017-11-22T10:03:10.505Z,28.17
2017-11-22T10:05:37.477Z,32.47
2017-11-22T10:08:03.988Z,29.65
2017-11-22T10:10:31.579Z,28.55
2017-11-22T10:12:58.812Z,26.85
2017-11-22T10:15:25.644Z,26.48
2017-11-22T10:17:58.560Z,23.38
2017-11-22T10:20:25.031Z,29.27
2017-11-22T10:22:51.281Z,27.80
2017-11-22T10:25:19.267Z,24.05
2017-11-22T10:27:48.097Z,24.40
2017-11-22T10:30:14.792Z,25.95
2017-11-22T10:32:47.668Z,27.73
2017-11-22T10:35:15.561Z,24.92
2017-11-22T10:37:43.186Z,27.00
2017-11-22T10:40:11.334Z,24.75
2017-11-22T10:42:37.676Z,28.12
2017-11-22T10:45:04.546Z,21.77
2017-11-22T10:47:31.783Z,21.62
2017-11-22T10:49:58.916Z,24.85
2017-11-22T10:52:25.697Z,18.37
2017-11-22T10:54:51.893Z,19.80
2017-11-22T10:57:18.271Z,17.80
2017-11-22T10:59:44.802Z,23.40
2017-11-22T11:02:12.350Z,18.05
2017-11-22T11:04:39.401Z,20.27
2017-11-22T11:07:07.068Z,18.95
2017-11-22T11:09:34.489Z,21.42
2017-11-22T11:12:01.984Z,17.85
2017-11-22T11:14:28.479Z,20.35
2017-11-22T11:16:55.991Z,19.33
2017-11-22T11:19:23.043Z,15.80
2017-11-22T11:21:49.251Z,16.55
2017-11-22T11:24:15.452Z,15.35
2017-11-22T11:26:42.848Z,19.70
2017-11-22T11:29:09.603Z,16.20
2017-11-22T11:31:37.145Z,14.55
2017-11-22T11:34:03.947Z,16.50
2017-11-22T11:36:32.663Z,14.90
2017-11-22T11:38:59.673Z,15.48
2017-11-22T11:41:27.079Z,15.00
2017-11-22T11:43:53.572Z,17.27
2017-11-22T11:46:20.925Z,16.00
2017-11-22T11:48:48.617Z,14.30
2017-11-22T11:51:14.856Z,12.25
2017-11-22T11:53:41.182Z,13.30
2017-11-22T11:56:07.841Z,15.77
2017-11-22T11:58:35.637Z,12.45
2017-11-22T12:01:02.604Z,13.48
2017-11-22T12:03:29.723Z,14.35
2017-11-22T12:05:56.989Z,12.88
2017-11-22T12:08:24.530Z,16.10
2017-11-22T12:10:51.688Z,20.48
2017-11-22T12:13:19.314Z,16.98
2017-11-22T12:15:46.082Z,12.20
2017-11-22T12:18:13.194Z,10.77
2017-11-22T12:20:39.437Z,18.20
2017-11-22T12:23:12.208Z,12.48
2017-11-22T12:25:39.350Z,12.47
2017-11-22T12:28:05.900Z,13.15
2017-11-22T12:30:33.560Z,10.50
2017-11-22T12:33:00.301Z,14.13
2017-11-22T12:35:27.303Z,12.98
2017-11-22T12:37:53.848Z,16.43
2017-11-22T12:40:20.900Z,14.15
2017-11-22T12:42:48.048Z,10.47
2017-11-22T12:45:14.269Z,14.37
2017-11-22T12:47:40.536Z,10.77
2017-11-22T12:50:07.919Z,12.70
2017-11-22T12:52:35.507Z,13.77
2017-11-22T12:55:02.111Z,10.50
2017-11-22T12:57:29.280Z,11.00
2017-11-22T12:59:56.357Z,11.00
2017-11-22T13:02:22.672Z,9.50
2017-11-22T13:04:48.905Z,10.20
2017-11-22T13:07:15.563Z,9.97
2017-11-22T13:09:43.368Z,11.43
2017-11-22T13:12:10.495Z,9.63
2017-11-22T13:14:38.498Z,14.53
2017-11-22T13:17:05.990Z,9.63
2017-11-22T13:19:32.983Z,9.93
2017-11-22T13:21:59.727Z,14.50
2017-11-22T13:24:26.208Z,11.70
2017-11-22T13:26:52.443Z,14.50
2017-11-22T13:29:19.384Z,12.10
2017-11-22T13:31:45.960Z,11.30
2017-11-22T13:34:12.183Z,11.10
2017-11-22T13:36:39.287Z,9.37
2017-11-22T13:39:06.761Z,10.67
2017-11-22T13:41:36.184Z,12.40
2017-11-22T13:44:03.195Z,10.10
2017-11-22T13:46:30.395Z,13.60
2017-11-22T13:48:56.932Z,11.47
2017-11-22T13:51:23.275Z,10.63
2017-11-22T13:53:50.451Z,8.63
2017-11-22T13:56:17.714Z,10.00
2017-11-22T14:01:16.889Z,10.20
2017-11-22T14:03:43.860Z,9.90
2017-11-22T14:06:10.134Z,11.93
2017-11-22T14:08:36.523Z,15.00
2017-11-22T14:11:03.495Z,13.80
2017-11-22T14:13:29.763Z,13.03
2017-11-22T14:15:56.399Z,9.57
2017-11-22T14:18:23.702Z,11.25
2017-11-22T14:20:50.647Z,8.77
2017-11-22T14:23:16.940Z,10.52
2017-11-22T14:25:44.038Z,11.52
2017-11-22T14:28:11.052Z,12.70
2017-11-22T14:30:37.327Z,19.77
2017-11-22T14:33:03.956Z,10.15
2017-11-22T14:35:31.107Z,13.38
2017-11-22T14:37:58.034Z,11.88
2017-11-22T14:40:25.303Z,17.12
2017-11-22T14:42:51.844Z,19.67
2017-11-22T14:45:19.833Z,12.23
2017-11-22T14:47:46.908Z,15.10
2017-11-22T14:50:13.139Z,16.95
2017-11-22T14:52:39.409Z,21.25
2017-11-22T14:55:06.306Z,15.38
2017-11-22T14:57:33.789Z,15.05
2017-11-22T15:00:00.099Z,19.58
2017-11-22T15:02:26.426Z,13.07
2017-11-22T15:04:53.200Z,13.90
2017-11-22T15:07:20.325Z,23.73
2017-11-22T15:09:48.389Z,15.52
2017-11-22T15:12:15.881Z,16.80
2017-11-22T15:14:42.876Z,10.63
2017-11-22T15:17:10.019Z,12.65
2017-11-22T15:19:37.428Z,17.23
2017-11-22T15:22:04.535Z,12.10
2017-11-22T15:24:31.875Z,17.33
2017-11-22T15:26:59.402Z,16.45
2017-11-22T15:29:26.172Z,23.60
2017-11-22T15:31:54.386Z,15.20
2017-11-22T15:34:21.103Z,13.88
2017-11-22T15:36:48.722Z,12.23
2017-11-22T15:39:15.989Z,13.00
2017-11-22T15:41:42.622Z,13.95
2017-11-22T15:44:10.624Z,15.45
2017-11-22T15:46:38.246Z,19.12
2017-11-22T15:49:05.030Z,19.25
2017-11-22T15:51:32.530Z,31.60
2017-11-22T15:53:59.768Z,18.12
2017-11-22T15:56:26.514Z,19.10
2017-11-22T15:58:53.325Z,23.48
2017-11-22T16:01:20.118Z,26.10
2017-11-22T16:03:46.576Z,20.45
2017-11-22T16:06:14.011Z,21.25
2017-11-22T16:08:40.274Z,19.85
2017-11-22T16:11:07.342Z,26.23
2017-11-22T16:13:33.757Z,31.83
2017-11-22T16:16:00.738Z,28.30
2017-11-22T16:18:27.222Z,38.67
2017-11-22T16:20:54.757Z,33.05
2017-11-22T16:23:21.400Z,35.33
2017-11-22T16:25:48.461Z,26.42
2017-11-22T16:28:15.801Z,26.45
2017-11-22T16:30:42.812Z,30.15
2017-11-22T16:33:09.075Z,24.37
2017-11-22T16:35:35.867Z,22.52
2017-11-22T16:38:02.446Z,20.75
2017-11-22T16:40:29.841Z,19.70
2017-11-22T16:42:56.929Z,21.98
2017-11-22T16:45:23.180Z,24.98
2017-11-22T16:47:49.407Z,21.83
2017-11-22T16:50:15.624Z,21.98
2017-11-22T16:52:42.608Z,21.35
2017-11-22T16:55:10.214Z,23.65
2017-11-22T16:57:36.862Z,19.55
2017-11-22T17:00:04.875Z,18.48
2017-11-22T17:02:31.844Z,28.10
2017-11-22T17:04:58.505Z,23.23
2017-11-22T17:07:25.972Z,20.92
2017-11-22T17:09:53.200Z,21.02
2017-11-22T17:12:19.636Z,18.62
2017-11-22T17:14:46.702Z,16.25
2017-11-22T17:17:12.967Z,12.00
2017-11-22T17:19:39.954Z,14.15
2017-11-22T17:22:06.792Z,14.07
2017-11-22T17:24:33.031Z,13.07
2017-11-22T17:26:59.483Z,17.75
2017-11-22T17:29:26.516Z,14.87
2017-11-22T17:31:52.771Z,20.90
2017-11-22T17:34:19.008Z,16.17
2017-11-22T17:36:45.213Z,11.52
2017-11-22T17:39:15.413Z,20.85
2017-11-22T17:41:42.029Z,20.42
2017-11-22T17:44:09.349Z,17.02
2017-11-22T17:46:36.556Z,20.60
2017-11-22T17:49:02.875Z,24.45
2017-11-22T17:51:30.440Z,18.15
2017-11-22T17:53:57.876Z,19.02
2017-11-22T17:56:24.382Z,34.60
2017-11-22T17:58:50.637Z,31.35
2017-11-22T18:01:17.086Z,30.52
2017-11-22T18:03:43.872Z,20.17
2017-11-22T18:06:10.539Z,23.55
2017-11-22T18:08:36.769Z,32.20
2017-11-22T18:11:03.729Z,34.72
2017-11-22T18:13:30.192Z,33.08
2017-11-22T18:15:56.387Z,26.25
2017-11-22T18:18:22.619Z,39.97
2017-11-22T18:20:49.297Z,41.92
2017-11-22T18:23:16.334Z,46.40
2017-11-22T18:25:42.620Z,46.90
2017-11-22T18:28:09.719Z,40.50
2017-11-22T18:30:36.540Z,40.42
2017-11-22T18:33:02.832Z,30.67
2017-11-22T18:35:29.898Z,28.85
2017-11-22T18:37:56.171Z,21.70
2017-11-22T18:40:23.718Z,29.27
2017-11-22T18:42:50.015Z,19.45
2017-11-22T18:45:16.246Z,22.65
2017-11-22T18:47:42.823Z,22.23
2017-11-22T18:50:09.833Z,20.23
2017-11-22T18:52:36.793Z,21.67
2017-11-22T18:55:03.605Z,24.87
2017-11-22T18:57:30.372Z,24.05
2017-11-22T18:59:56.591Z,22.30
2017-11-22T19:02:22.846Z,27.62
2017-11-22T19:04:49.803Z,23.52
2017-11-22T19:07:18.098Z,19.33
2017-11-22T19:09:45.616Z,17.90
2017-11-22T19:12:13.478Z,17.87
2017-11-22T19:14:40.722Z,19.65
2017-11-22T19:17:06.925Z,21.58
2017-11-22T19:19:33.799Z,16.42
2017-11-22T19:22:00.197Z,19.30
2017-11-22T19:24:27.331Z,21.30
2017-11-22T19:26:54.902Z,22.58
2017-11-22T19:29:25.695Z,22.33
2017-11-22T19:31:51.953Z,20.95
2017-11-22T19:34:18.986Z,22.10
2017-11-22T19:36:45.193Z,19.83
2017-11-22T19:39:12.125Z,18.85
2017-11-22T19:41:39.140Z,26.40
2017-11-22T19:44:05.942Z,23.95
2017-11-22T19:46:33.394Z,21.80
2017-11-22T19:48:59.752Z,25.67
2017-11-22T19:51:27.446Z,32.50
2017-11-22T19:53:55.064Z,28.02
2017-11-22T19:56:22.033Z,40.47
2017-11-22T19:58:49.201Z,36.50
2017-11-22T20:01:16.464Z,37.15
2017-11-22T20:03:43.037Z,31.83
2017-11-22T20:06:10.655Z,25.12
2017-11-22T20:08:41.689Z,20.92
2017-11-22T20:11:07.941Z,26.10
2017-11-22T20:13:34.955Z,32.17
2017-11-22T20:16:03.919Z,32.75
2017-11-22T20:18:30.885Z,32.47
2017-11-22T20:20:57.930Z,29.12
2017-11-22T20:23:25.093Z,31.42
2017-11-22T20:25:51.883Z,29.02
2017-11-22T20:28:18.755Z,25.33
2017-11-22T20:30:46.842Z,26.00
2017-11-22T20:33:13.473Z,32.78
2017-11-22T20:35:39.709Z,34.28
2017-11-22T20:38:06.620Z,33.17
2017-11-22T20:40:33.881Z,24.08
2017-11-22T20:43:00.849Z,29.55
2017-11-22T20:45:27.084Z,25.77
2017-11-22T20:47:53.422Z,25.62
2017-11-22T20:50:20.154Z,30.30
2017-11-22T20:52:47.818Z,23.87
2017-11-22T20:55:14.955Z,20.62
2017-11-22T20:57:41.996Z,22.83
2017-11-22T21:00:09.197Z,20.05
2017-11-22T21:02:36.712Z,26.58
2017-11-22T21:05:02.952Z,23.40
2017-11-22T21:07:29.752Z,20.30
2017-11-22T21:09:56.745Z,27.08
2017-11-22T21:12:23.670Z,31.58
2017-11-22T21:14:49.932Z,18.58
2017-11-22T21:17:16.292Z,27.60
2017-11-22T21:19:43.264Z,23.67
2017-11-22T21:22:10.309Z,36.03
2017-11-22T21:24:37.494Z,42.67
2017-11-22T21:27:04.085Z,26.90
2017-11-22T21:29:32.437Z,41.63
2017-11-22T21:31:59.490Z,30.73
2017-11-22T21:34:25.824Z,39.05
2017-11-22T21:36:52.815Z,27.02
2017-11-22T21:39:19.261Z,22.45
2017-11-22T21:41:46.796Z,32.45
2017-11-22T21:44:14.102Z,22.42
2017-11-22T21:46:40.400Z,14.87
2017-11-22T21:49:07.198Z,17.75
2017-11-22T21:51:34.468Z,15.88
2017-11-22T21:54:01.168Z,34.15
2017-11-22T21:56:27.467Z,54.80
2017-11-22T21:58:53.709Z,19.52
2017-11-22T22:01:20.110Z,19.20
2017-11-22T22:03:48.939Z,22.42
2017-11-22T22:06:16.062Z,28.77
2017-11-22T22:08:42.259Z,27.65
2017-11-22T22:11:09.464Z,36.90
2017-11-22T22:13:35.960Z,31.85
2017-11-22T22:16:03.756Z,17.95
2017-11-22T22:18:30.759Z,22.15
2017-11-22T22:20:57.903Z,27.75
2017-11-22T22:23:25.033Z,27.40
2017-11-22T22:25:52.661Z,34.67
2017-11-22T22:28:20.110Z,32.97
2017-11-22T22:30:47.115Z,30.25
2017-11-22T22:33:14.120Z,25.05
2017-11-22T22:35:40.475Z,24.27
2017-11-22T22:38:07.832Z,26.60
2017-11-22T22:40:35.472Z,25.42
2017-11-22T22:43:01.679Z,38.88
2017-11-22T22:45:28.480Z,34.75
2017-11-22T22:47:55.310Z,23.70
2017-11-22T22:50:22.875Z,19.15
2017-11-22T22:52:49.676Z,16.27
2017-11-22T22:55:15.909Z,14.20
2017-11-22T22:57:42.127Z,15.13
2017-11-22T23:00:08.357Z,18.48
2017-11-22T23:02:34.765Z,17.40
2017-11-22T23:05:01.003Z,16.10
2017-11-22T23:07:27.962Z,12.60
2017-11-22T23:09:54.695Z,18.00
2017-11-22T23:12:21.423Z,14.23
2017-11-22T23:14:47.936Z,18.45
2017-11-22T23:17:14.168Z,11.68
2017-11-22T23:19:40.440Z,12.48
2017-11-22T23:22:07.467Z,16.83
2017-11-22T23:24:33.770Z,14.55
2017-11-22T23:27:00.564Z,18.45
2017-11-22T23:29:27.098Z,14.80
2017-11-22T23:31:54.698Z,13.20
2017-11-22T23:34:22.415Z,12.00
2017-11-22T23:36:49.757Z,16.42
2017-11-22T23:39:18.551Z,16.15
2017-11-22T23:41:44.961Z,15.40
2017-11-22T23:44:12.068Z,19.95
2017-11-22T23:46:38.300Z,17.55
2017-11-22T23:49:04.552Z,13.90
2017-11-22T23:51:31.152Z,13.75
2017-11-22T23:53:58.222Z,10.95
2017-11-22T23:56:25.977Z,10.48
2017-11-22T23:58:53.058Z,14.87
